createdAt,value
2023-02-24T00:00:34.415Z,8.27
2023-02-24T00:03:15.014Z,8.22
2023-02-24T00:05:50.020Z,8.22
2023-02-24T00:08:21.588Z,8.23
2023-02-24T00:13:40.237Z,8.25
2023-02-24T00:16:13.437Z,8.26
2023-02-24T00:18:55.671Z,8.22
2023-02-24T00:21:30.304Z,8.25
2023-02-24T00:23:59.505Z,8.23
2023-02-24T00:26:31.948Z,8.22
2023-02-24T00:29:13.675Z,8.20
2023-02-24T00:31:47.481Z,8.20
2023-02-24T00:34:15.265Z,8.22
2023-02-24T00:36:51.190Z,8.27
2023-02-24T00:39:28.889Z,8.30
2023-02-24T00:42:04.929Z,8.27
2023-02-24T00:44:40.005Z,8.29
2023-02-24T00:47:10.874Z,8.30
2023-02-24T00:52:23.619Z,8.27
2023-02-24T00:57:18.811Z,8.41
2023-02-24T00:59:48.899Z,8.46
2023-02-24T01:02:18.472Z,8.43
2023-02-24T01:07:15.099Z,8.46
2023-02-24T01:12:49.453Z,8.45
2023-02-24T01:15:33.987Z,8.45
2023-02-24T01:18:03.617Z,8.43
2023-02-24T01:20:33.210Z,8.40
2023-02-24T01:23:00.819Z,8.31
2023-02-24T01:25:37.214Z,8.23
2023-02-24T01:28:04.522Z,8.18
2023-02-24T01:30:34.448Z,8.21
2023-02-24T01:33:04.090Z,8.21
2023-02-24T01:38:02.117Z,8.29
2023-02-24T01:40:33.727Z,8.14
2023-02-24T01:43:05.707Z,8.13
2023-02-24T01:45:36.878Z,8.19
2023-02-24T01:48:08.513Z,8.20
2023-02-24T01:50:38.792Z,8.18
2023-02-24T01:53:08.764Z,8.15
2023-02-24T01:55:47.252Z,8.17
2023-02-24T01:58:24.196Z,8.16
2023-02-24T02:00:52.210Z,8.18
2023-02-24T02:06:17.982Z,7.97
2023-02-24T02:08:45.628Z,7.91
2023-02-24T02:11:20.496Z,7.90
2023-02-24T02:16:39.283Z,7.98
2023-02-24T02:19:23.993Z,7.95
2023-02-24T02:22:19.470Z,7.98
2023-02-24T02:25:00.791Z,7.98
2023-02-24T02:27:47.558Z,7.89
2023-02-24T02:30:37.199Z,7.79
2023-02-24T02:33:17.657Z,7.76
2023-02-24T02:36:00.815Z,7.77
2023-02-24T02:38:43.854Z,7.78
2023-02-24T02:41:40.517Z,7.76
2023-02-24T02:44:19.382Z,7.77
2023-02-24T02:47:17.277Z,7.72
2023-02-24T02:49:53.447Z,7.66
2023-02-24T02:58:35.758Z,7.69
2023-02-24T03:01:10.534Z,7.68
2023-02-24T03:03:58.657Z,7.64
2023-02-24T03:12:27.262Z,7.53
2023-02-24T03:15:10.951Z,7.56
2023-02-24T03:18:06.144Z,7.53
2023-02-24T03:20:44.505Z,7.46
2023-02-24T03:23:26.686Z,7.47
2023-02-24T03:26:20.412Z,7.48
2023-02-24T03:29:14.139Z,7.41
2023-02-24T03:32:04.942Z,7.36
2023-02-24T03:38:03.249Z,7.26
2023-02-24T03:40:37.998Z,7.29
2023-02-24T03:43:34.746Z,7.26
2023-02-24T03:46:14.078Z,7.29
2023-02-24T03:49:06.841Z,7.31
2023-02-24T03:51:34.398Z,7.29
2023-02-24T03:54:31.172Z,7.33
2023-02-24T03:57:26.952Z,7.37
2023-02-24T04:00:26.858Z,7.33
2023-02-24T04:03:23.985Z,7.39
2023-02-24T04:10:16.876Z,7.36
2023-02-24T04:13:10.607Z,7.34
2023-02-24T04:16:00.321Z,7.29
2023-02-24T04:18:45.113Z,7.26
2023-02-24T04:21:16.807Z,7.34
2023-02-24T04:23:52.275Z,7.32
2023-02-24T04:26:25.613Z,7.21
2023-02-24T04:29:14.359Z,7.19
2023-02-24T04:31:45.417Z,7.13
2023-02-24T04:37:34.238Z,7.00
2023-02-24T04:40:21.095Z,6.98
2023-02-24T04:43:11.649Z,7.08
2023-02-24T04:45:52.676Z,7.16
2023-02-24T04:48:36.090Z,7.07
2023-02-24T04:51:09.713Z,7.07
2023-02-24T04:56:19.105Z,6.98
2023-02-24T04:58:52.140Z,6.91
2023-02-24T05:01:25.280Z,6.84
2023-02-24T05:03:56.905Z,6.76
2023-02-24T05:06:40.894Z,6.77
2023-02-24T05:09:14.494Z,6.76
2023-02-24T05:14:25.184Z,6.71
2023-02-24T05:16:56.273Z,6.70
2023-02-24T05:19:48.735Z,6.67
2023-02-24T05:22:24.882Z,6.69
2023-02-24T05:25:06.051Z,6.70
2023-02-24T05:27:37.644Z,6.69
2023-02-24T05:30:11.557Z,6.84
2023-02-24T05:35:15.576Z,7.03
2023-02-24T05:37:59.230Z,7.08
2023-02-24T05:46:17.848Z,7.12
2023-02-24T05:49:14.316Z,7.12
2023-02-24T05:52:02.167Z,7.08
2023-02-24T05:54:51.495Z,7.10
2023-02-24T05:57:39.914Z,7.06
2023-02-24T06:03:19.364Z,7.04
2023-02-24T06:06:56.615Z,6.97
2023-02-24T06:12:22.258Z,6.94
2023-02-24T06:17:33.399Z,6.83
2023-02-24T06:24:27.149Z,6.95
2023-02-24T06:27:26.051Z,7.03
2023-02-24T06:29:56.933Z,7.02
2023-02-24T06:35:41.794Z,6.94
2023-02-24T06:38:16.469Z,7.00
2023-02-24T06:41:24.504Z,7.07
2023-02-24T06:44:18.026Z,7.11
2023-02-24T07:00:09.509Z,7.23
2023-02-24T07:07:49.592Z,7.21
2023-02-24T07:34:37.666Z,7.28
2023-02-24T07:41:04.696Z,7.47
2023-02-24T07:44:17.415Z,7.39
2023-02-24T07:51:46.932Z,7.48
2023-02-24T08:19:37.681Z,7.51
2023-02-24T08:40:45.116Z,7.68
2023-02-24T08:44:35.760Z,7.69
2023-02-24T08:48:07.694Z,7.66
2023-02-24T08:55:12.866Z,7.52
2023-02-24T08:59:21.221Z,7.62
2023-02-24T09:14:47.040Z,7.90
2023-02-24T09:18:53.175Z,7.94
2023-02-24T10:04:21.690Z,8.85
2023-02-24T10:08:31.208Z,8.78
2023-02-24T10:28:50.154Z,8.76
2023-02-24T11:50:41.654Z,9.84
2023-02-24T11:54:09.366Z,9.75
2023-02-24T11:57:50.365Z,9.79
2023-02-24T12:04:29.480Z,10.00
2023-02-24T14:00:27.368Z,9.84
2023-02-24T15:03:13.294Z,9.43
2023-02-24T15:59:17.609Z,8.88
2023-02-24T16:01:44.896Z,8.84
2023-02-24T16:04:12.336Z,8.71
2023-02-24T16:06:43.345Z,8.69
2023-02-24T16:09:17.217Z,8.67
2023-02-24T16:11:46.663Z,8.59
2023-02-24T16:14:16.525Z,8.56
2023-02-24T16:16:43.358Z,8.53
2023-02-24T16:19:14.310Z,8.51
2023-02-24T16:21:41.164Z,8.52
2023-02-24T16:24:09.429Z,8.43
2023-02-24T16:26:38.973Z,8.51
2023-02-24T16:29:11.815Z,8.46
2023-02-24T16:31:39.562Z,8.31
2023-02-24T16:34:07.246Z,8.36
2023-02-24T16:36:33.946Z,8.33
2023-02-24T16:39:01.140Z,8.30
2023-02-24T16:41:27.649Z,8.22
2023-02-24T16:43:54.084Z,8.16
2023-02-24T16:48:54.095Z,8.07
2023-02-24T16:51:22.074Z,7.94
2023-02-24T16:53:48.510Z,8.02
2023-02-24T16:56:15.636Z,7.85
2023-02-24T16:58:42.223Z,7.75
2023-02-24T17:01:14.799Z,7.71
2023-02-24T17:03:46.642Z,7.69
2023-02-24T17:06:13.534Z,7.61
2023-02-24T17:08:43.415Z,7.62
2023-02-24T17:11:14.126Z,7.67
2023-02-24T17:13:40.910Z,7.59
2023-02-24T17:16:07.884Z,7.57
2023-02-24T17:18:34.347Z,7.57
2023-02-24T17:21:00.980Z,7.49
2023-02-24T17:23:27.823Z,7.43
2023-02-24T17:25:58.488Z,7.37
2023-02-24T17:28:27.517Z,7.44
2023-02-24T17:30:54.272Z,7.31
2023-02-24T17:33:24.716Z,7.38
2023-02-24T17:35:51.367Z,7.33
2023-02-24T17:38:20.657Z,7.40
2023-02-24T17:40:49.484Z,7.25
2023-02-24T17:45:47.303Z,7.28
2023-02-24T17:48:16.578Z,7.29
2023-02-24T17:50:52.426Z,7.28
2023-02-24T17:56:02.371Z,7.39
2023-02-24T17:58:34.596Z,7.31
2023-02-24T18:01:02.690Z,7.30
2023-02-24T18:03:30.973Z,7.29
2023-02-24T18:06:06.983Z,7.17
2023-02-24T18:08:34.541Z,7.16
2023-02-24T18:11:04.473Z,7.16
2023-02-24T18:13:31.868Z,7.15
2023-02-24T18:15:59.451Z,7.15
2023-02-24T18:18:27.250Z,7.15
2023-02-24T18:20:55.015Z,7.11
2023-02-24T18:23:22.722Z,7.18
2023-02-24T18:25:49.176Z,7.11
2023-02-24T18:28:15.742Z,7.03
2023-02-24T18:30:48.313Z,6.92
2023-02-24T18:35:46.157Z,7.03
2023-02-24T18:40:39.202Z,6.87
2023-02-24T18:43:05.748Z,6.88
2023-02-24T18:45:32.900Z,6.83
2023-02-24T18:48:04.899Z,6.86
2023-02-24T18:50:32.564Z,6.74
2023-02-24T18:52:59.018Z,6.87
2023-02-24T18:55:25.494Z,6.92
2023-02-24T18:57:52.848Z,6.82
2023-02-24T19:02:47.270Z,6.63
2023-02-24T19:05:13.764Z,6.69
2023-02-24T19:07:40.212Z,6.51
2023-02-24T19:10:07.369Z,6.51
2023-02-24T19:12:36.802Z,6.29
2023-02-24T19:15:03.740Z,6.09
2023-02-24T19:17:30.166Z,5.86
2023-02-24T19:19:56.596Z,5.74
2023-02-24T19:22:23.047Z,5.29
2023-02-24T19:24:52.585Z,5.17
2023-02-24T19:29:45.525Z,5.01
2023-02-24T19:32:12.029Z,4.63
2023-02-24T19:34:38.712Z,4.41
2023-02-24T19:37:05.899Z,4.10
2023-02-24T19:39:32.471Z,4.09
2023-02-24T19:42:01.786Z,4.04
2023-02-24T19:44:28.406Z,3.77
2023-02-24T19:46:54.951Z,3.62
2023-02-24T19:49:21.682Z,3.62
2023-02-24T19:51:48.546Z,3.51
2023-02-24T19:56:42.396Z,3.54
2023-02-24T19:59:09.888Z,3.45
2023-02-24T20:01:36.464Z,3.40
2023-02-24T20:04:04.380Z,3.29
2023-02-24T20:06:36.669Z,3.19
2023-02-24T20:11:39.784Z,2.98
2023-02-24T20:14:07.551Z,2.93
2023-02-24T20:16:36.799Z,2.83
2023-02-24T20:19:04.548Z,2.86
2023-02-24T20:24:02.611Z,2.87
2023-02-24T20:26:30.139Z,2.92
2023-02-24T20:28:57.148Z,2.81
2023-02-24T20:31:24.065Z,2.84
2023-02-24T20:33:51.141Z,2.79
2023-02-24T20:36:26.814Z,2.74
2023-02-24T20:38:54.324Z,2.67
2023-02-24T20:43:54.579Z,2.72
2023-02-24T20:46:24.314Z,2.69
2023-02-24T20:48:52.159Z,2.66
2023-02-24T20:51:18.884Z,2.67
2023-02-24T20:53:56.587Z,2.67
2023-02-24T21:01:34.708Z,2.67
2023-02-24T21:06:33.969Z,2.68
2023-02-24T21:09:00.560Z,2.60
2023-02-24T21:11:27.822Z,2.61
2023-02-24T21:13:54.496Z,2.62
2023-02-24T21:18:49.825Z,2.62
2023-02-24T21:23:44.240Z,2.64
2023-02-24T21:28:42.841Z,2.65
2023-02-24T21:31:11.770Z,2.61
2023-02-24T21:36:09.113Z,2.62
2023-02-24T21:38:36.637Z,2.67
2023-02-24T21:41:08.849Z,2.72
2023-02-24T21:43:35.629Z,2.70
2023-02-24T21:46:05.422Z,2.74
2023-02-24T21:48:33.225Z,2.68
2023-02-24T21:51:06.319Z,2.69
2023-02-24T21:53:36.110Z,2.63
2023-02-24T21:56:10.732Z,2.63
2023-02-24T21:58:39.058Z,2.67
2023-02-24T22:01:10.122Z,2.70
2023-02-24T22:03:37.049Z,2.75
2023-02-24T22:06:03.683Z,2.74
2023-02-24T22:08:30.131Z,2.78
2023-02-24T22:11:00.401Z,2.75
2023-02-24T22:13:27.584Z,2.76
2023-02-24T22:15:54.143Z,2.75
2023-02-24T22:20:47.175Z,2.68
2023-02-24T22:23:13.755Z,2.76
2023-02-24T22:25:40.202Z,2.88
2023-02-24T22:28:09.365Z,2.77
2023-02-24T22:30:35.899Z,2.65
2023-02-24T22:33:02.359Z,2.66
2023-02-24T22:35:28.863Z,2.68
2023-02-24T22:37:55.561Z,2.67
2023-02-24T22:40:22.058Z,2.79
2023-02-24T22:42:48.542Z,2.82
2023-02-24T22:47:41.458Z,2.88
2023-02-24T22:50:09.464Z,2.81
2023-02-24T22:52:35.956Z,2.88
2023-02-24T22:55:03.228Z,2.86
2023-02-24T22:57:32.648Z,2.82
2023-02-24T22:59:59.849Z,2.79
2023-02-24T23:02:26.337Z,2.78
2023-02-24T23:04:52.756Z,2.83
2023-02-24T23:07:19.193Z,2.82
2023-02-24T23:09:52.675Z,2.81
2023-02-24T23:14:51.980Z,2.83
2023-02-24T23:19:49.903Z,2.87
2023-02-24T23:22:18.908Z,2.89
2023-02-24T23:24:45.323Z,2.92
2023-02-24T23:29:38.105Z,3.01
2023-02-24T23:32:05.051Z,3.06
2023-02-24T23:34:31.605Z,3.07
2023-02-24T23:36:58.075Z,3.06
2023-02-24T23:39:24.709Z,3.02
2023-02-24T23:41:56.643Z,2.96
2023-02-24T23:44:23.846Z,2.92
2023-02-24T23:46:50.506Z,2.95
2023-02-24T23:49:16.921Z,2.91
2023-02-24T23:51:48.367Z,2.88
2023-02-24T23:56:48.318Z,2.85
2023-02-24T23:59:15.506Z,2.84
